createdAt,value
2022-08-11T00:02:01.491Z,33.30
2022-08-11T00:04:37.362Z,33.03
2022-08-11T00:07:07.135Z,33.42
2022-08-11T00:09:40.178Z,33.86
2022-08-11T00:12:18.412Z,33.70
2022-08-11T00:14:55.431Z,33.93
2022-08-11T00:17:29.608Z,34.41
2022-08-11T00:20:14.102Z,34.43
2022-08-11T00:22:48.070Z,34.34
2022-08-11T00:25:22.328Z,33.97
2022-08-11T00:27:50.887Z,34.55
2022-08-11T00:30:19.066Z,34.33
2022-08-11T00:32:56.774Z,33.88
2022-08-11T00:35:51.693Z,34.08
2022-08-11T00:38:26.645Z,33.62
2022-08-11T00:41:32.015Z,33.97
2022-08-11T00:44:27.119Z,33.45
2022-08-11T00:47:17.164Z,33.97
2022-08-11T00:50:06.725Z,33.77
2022-08-11T00:53:06.265Z,33.58
2022-08-11T00:55:56.223Z,34.21
2022-08-11T00:58:42.978Z,34.08
2022-08-11T01:01:18.280Z,34.65
2022-08-11T01:04:11.347Z,34.33
2022-08-11T01:06:59.783Z,33.92
2022-08-11T01:09:37.468Z,34.31
2022-08-11T01:12:19.536Z,34.25
2022-08-11T01:15:15.756Z,34.95
2022-08-11T01:18:08.886Z,34.46
2022-08-11T01:21:08.122Z,34.59
2022-08-11T01:23:54.775Z,34.44
2022-08-11T01:26:41.117Z,34.57
2022-08-11T01:29:18.455Z,34.63
2022-08-11T01:32:05.036Z,34.60
2022-08-11T01:35:11.025Z,34.83
2022-08-11T01:38:03.425Z,34.68
2022-08-11T01:40:53.536Z,34.55
2022-08-11T01:43:55.564Z,35.29
2022-08-11T01:46:33.807Z,34.65
2022-08-11T01:49:29.015Z,34.72
2022-08-11T01:52:30.159Z,34.32
2022-08-11T01:55:28.125Z,34.39
2022-08-11T01:58:01.331Z,34.20
2022-08-11T02:00:32.201Z,34.21
2022-08-11T02:03:11.755Z,34.15
2022-08-11T02:06:31.318Z,34.92
2022-08-11T02:09:13.587Z,34.90
2022-08-11T02:11:49.915Z,34.76
2022-08-11T02:14:35.088Z,34.36
2022-08-11T02:17:13.598Z,35.67
2022-08-11T02:20:42.015Z,35.42
2022-08-11T02:24:03.848Z,34.56
2022-08-11T02:26:36.826Z,36.20
2022-08-11T02:29:26.765Z,37.19
2022-08-11T02:32:30.674Z,37.74
2022-08-11T02:35:29.596Z,37.99
2022-08-11T02:38:45.618Z,38.12
2022-08-11T02:42:03.086Z,38.21
2022-08-11T02:44:37.136Z,38.02
2022-08-11T02:47:38.826Z,37.98
2022-08-11T02:50:30.937Z,38.51
2022-08-11T02:53:34.993Z,38.41
2022-08-11T02:56:23.237Z,38.21
2022-08-11T02:59:50.516Z,38.74
2022-08-11T03:02:33.527Z,39.19
2022-08-11T03:05:21.602Z,38.35
2022-08-11T03:08:26.906Z,39.08
2022-08-11T03:11:24.313Z,39.18
2022-08-11T03:14:34.806Z,39.26
2022-08-11T03:17:31.541Z,39.96
2022-08-11T03:20:12.763Z,39.55
2022-08-11T03:22:55.954Z,40.30
2022-08-11T03:25:32.953Z,39.74
2022-08-11T03:28:22.315Z,40.15
2022-08-11T03:31:06.708Z,40.73
2022-08-11T03:34:07.330Z,40.59
2022-08-11T03:37:17.258Z,39.79
2022-08-11T03:40:00.389Z,39.41
2022-08-11T03:42:58.414Z,39.90
2022-08-11T03:45:40.717Z,40.42
2022-08-11T03:48:20.614Z,40.58
2022-08-11T03:51:19.594Z,40.12
2022-08-11T03:54:10.504Z,39.16
2022-08-11T03:57:17.131Z,39.27
2022-08-11T04:00:11.454Z,39.12
2022-08-11T04:03:14.053Z,39.20
2022-08-11T04:06:29.246Z,39.05
2022-08-11T04:09:36.076Z,39.28
2022-08-11T04:12:45.591Z,39.40
2022-08-11T04:16:11.576Z,39.00
2022-08-11T04:19:05.585Z,39.18
2022-08-11T04:22:08.024Z,39.04
2022-08-11T04:24:50.144Z,38.98
2022-08-11T04:27:40.683Z,39.20
2022-08-11T04:30:17.936Z,39.64
2022-08-11T04:32:55.323Z,39.66
2022-08-11T04:35:48.611Z,39.22
2022-08-11T04:38:38.895Z,39.84
2022-08-11T04:42:04.113Z,42.31
2022-08-11T04:45:17.345Z,43.50
2022-08-11T04:48:22.555Z,43.55
2022-08-11T04:51:47.384Z,43.11
2022-08-11T04:54:59.645Z,43.20
2022-08-11T04:58:10.987Z,43.29
2022-08-11T05:01:09.700Z,43.12
2022-08-11T05:04:04.734Z,42.44
2022-08-11T05:07:12.374Z,40.87
2022-08-11T05:10:04.192Z,41.47
2022-08-11T05:13:22.983Z,39.66
2022-08-11T05:16:16.172Z,39.02
2022-08-11T05:19:16.063Z,38.96
2022-08-11T05:22:12.030Z,38.91
2022-08-11T05:25:07.019Z,37.87
2022-08-11T05:28:09.045Z,37.80
2022-08-11T05:31:01.184Z,37.42
2022-08-11T05:34:01.752Z,37.17
2022-08-11T05:36:51.272Z,35.92
2022-08-11T05:39:48.004Z,36.00
2022-08-11T05:42:38.442Z,35.40
2022-08-11T05:46:02.548Z,34.43
2022-08-11T05:48:51.602Z,34.21
2022-08-11T05:51:39.463Z,34.25
2022-08-11T05:54:46.012Z,34.39
2022-08-11T05:57:42.343Z,34.45
2022-08-11T06:00:20.425Z,34.96
2022-08-11T06:02:55.626Z,35.72
2022-08-11T06:05:44.122Z,34.66
2022-08-11T06:08:15.137Z,34.26
2022-08-11T06:10:45.818Z,35.05
2022-08-11T06:13:18.715Z,35.40
2022-08-11T06:15:50.447Z,35.64
2022-08-11T06:18:20.560Z,35.05
2022-08-11T06:20:49.958Z,35.08
2022-08-11T06:23:20.830Z,34.27
2022-08-11T06:25:51.579Z,32.20
2022-08-11T06:28:30.897Z,31.32
2022-08-11T06:31:00.522Z,31.70
2022-08-11T06:33:47.199Z,30.70
2022-08-11T06:36:34.690Z,31.03
2022-08-11T06:39:24.928Z,29.75
2022-08-11T06:42:11.346Z,29.82
2022-08-11T06:45:25.291Z,27.95
2022-08-11T06:47:54.897Z,26.60
2022-08-11T06:50:42.499Z,26.06
2022-08-11T06:53:12.649Z,25.51
2022-08-11T06:56:03.078Z,24.63
2022-08-11T06:59:01.138Z,23.95
2022-08-11T07:01:36.003Z,24.02
2022-08-11T07:04:10.767Z,23.78
2022-08-11T07:06:51.017Z,23.82
2022-08-11T07:10:00.498Z,23.44
2022-08-11T07:13:02.201Z,23.63
2022-08-11T07:16:11.464Z,23.37
2022-08-11T07:18:54.536Z,23.21
2022-08-11T07:22:02.821Z,22.99
2022-08-11T07:25:03.066Z,22.84
2022-08-11T07:28:06.708Z,22.91
2022-08-11T07:30:40.209Z,22.27
2022-08-11T07:33:11.157Z,22.27
2022-08-11T07:36:01.698Z,22.40
2022-08-11T07:38:47.663Z,22.22
2022-08-11T07:41:18.788Z,22.04
2022-08-11T07:43:51.087Z,21.73
2022-08-11T07:46:39.348Z,21.73
2022-08-11T07:49:29.186Z,21.74
2022-08-11T07:52:16.530Z,21.32
2022-08-11T07:54:45.388Z,21.20
2022-08-11T07:58:13.804Z,21.68
2022-08-11T08:00:46.444Z,21.41
2022-08-11T08:03:53.869Z,21.02
2022-08-11T08:06:43.428Z,20.94
2022-08-11T08:09:31.729Z,20.17
2022-08-11T08:12:21.178Z,20.74
2022-08-11T08:15:10.485Z,20.42
2022-08-11T08:18:20.400Z,20.61
2022-08-11T08:20:52.247Z,20.67
2022-08-11T08:23:34.012Z,20.37
2022-08-11T08:26:16.702Z,20.19
2022-08-11T08:28:46.921Z,20.40
2022-08-11T08:31:16.240Z,20.29
2022-08-11T08:33:45.366Z,20.40
2022-08-11T08:36:17.322Z,21.32
2022-08-11T08:38:53.447Z,21.83
2022-08-11T08:41:37.091Z,21.55
2022-08-11T08:44:35.027Z,20.91
2022-08-11T08:47:00.898Z,20.71
2022-08-11T08:49:40.282Z,20.10
2022-08-11T08:52:30.685Z,19.97
2022-08-11T08:55:04.987Z,20.39
2022-08-11T08:57:39.601Z,19.91
2022-08-11T09:00:13.808Z,19.75
2022-08-11T09:02:46.110Z,19.48
2022-08-11T09:05:18.425Z,19.38
2022-08-11T09:07:51.458Z,19.27
2022-08-11T09:10:20.811Z,19.24
2022-08-11T09:12:51.755Z,19.04
2022-08-11T09:15:22.618Z,19.14
2022-08-11T09:18:03.988Z,19.00
2022-08-11T09:20:39.431Z,18.84
2022-08-11T09:24:07.826Z,20.08
2022-08-11T09:26:37.129Z,19.76
2022-08-11T09:29:06.287Z,19.65
2022-08-11T09:31:39.646Z,19.51
2022-08-11T09:34:14.389Z,20.07
2022-08-11T09:37:03.688Z,19.16
2022-08-11T09:39:55.669Z,19.71
2022-08-11T09:42:45.558Z,19.29
2022-08-11T09:45:15.138Z,19.12
2022-08-11T09:47:46.029Z,18.84
2022-08-11T09:50:17.627Z,18.59
2022-08-11T09:53:16.878Z,19.41
2022-08-11T09:55:39.660Z,19.64
2022-08-11T09:58:35.200Z,20.26
2022-08-11T10:01:04.273Z,21.19
2022-08-11T10:03:40.405Z,20.88
2022-08-11T10:06:33.308Z,20.60
2022-08-11T10:09:05.784Z,21.13
2022-08-11T10:11:38.053Z,20.89
2022-08-11T10:14:32.725Z,20.76
2022-08-11T10:17:08.543Z,20.75
2022-08-11T10:19:38.312Z,20.17
2022-08-11T10:22:27.736Z,20.72
2022-08-11T10:25:19.623Z,20.77
2022-08-11T10:28:28.805Z,21.22
2022-08-11T10:31:11.234Z,21.76
2022-08-11T10:34:00.473Z,21.04
2022-08-11T10:36:31.763Z,20.28
2022-08-11T10:39:02.885Z,21.32
2022-08-11T10:42:06.861Z,20.82
2022-08-11T10:44:44.254Z,20.35
2022-08-11T10:47:33.642Z,21.30
2022-08-11T10:50:30.541Z,19.97
2022-08-11T10:53:20.190Z,20.24
2022-08-11T10:56:08.205Z,21.31
2022-08-11T10:58:51.521Z,20.62
2022-08-11T11:01:35.283Z,19.39
2022-08-11T11:04:11.178Z,19.15
2022-08-11T11:06:44.439Z,19.36
2022-08-11T11:09:21.935Z,20.63
2022-08-11T11:12:14.411Z,20.29
2022-08-11T11:15:03.258Z,19.56
2022-08-11T11:17:57.468Z,19.03
2022-08-11T11:20:38.408Z,18.77
2022-08-11T11:23:47.908Z,18.60
2022-08-11T11:26:31.220Z,18.85
2022-08-11T11:29:31.770Z,20.11
2022-08-11T11:32:00.019Z,19.81
2022-08-11T11:34:54.117Z,19.22
2022-08-11T11:37:24.439Z,18.52
2022-08-11T11:39:55.749Z,18.19
2022-08-11T11:42:24.510Z,17.97
2022-08-11T11:44:55.990Z,17.60
2022-08-11T11:47:26.969Z,17.78
2022-08-11T11:49:55.826Z,18.77
2022-08-11T11:52:24.757Z,18.86
2022-08-11T11:54:57.263Z,19.33
2022-08-11T11:57:59.042Z,19.08
2022-08-11T12:00:49.487Z,19.07
2022-08-11T12:03:20.339Z,18.67
2022-08-11T12:05:49.186Z,19.35
2022-08-11T12:08:18.181Z,18.74
2022-08-11T12:11:25.971Z,18.30
2022-08-11T12:13:59.287Z,17.93
2022-08-11T12:16:32.774Z,18.04
2022-08-11T12:19:08.366Z,17.67
2022-08-11T12:21:59.337Z,17.66
2022-08-11T12:24:53.552Z,16.99
2022-08-11T12:27:24.897Z,18.46
2022-08-11T12:30:00.541Z,18.11
2022-08-11T12:32:33.050Z,17.29
2022-08-11T12:35:01.830Z,17.64
2022-08-11T12:37:41.093Z,18.01
2022-08-11T12:40:42.648Z,17.87
2022-08-11T12:43:46.100Z,19.08
2022-08-11T12:46:35.264Z,19.80
2022-08-11T12:49:31.930Z,19.97
2022-08-11T12:52:14.701Z,20.17
2022-08-11T12:54:52.569Z,18.83
2022-08-11T12:57:56.008Z,18.27
2022-08-11T13:00:45.048Z,18.20
2022-08-11T13:03:39.001Z,17.45
2022-08-11T13:06:08.849Z,17.40
2022-08-11T13:08:40.249Z,16.92
2022-08-11T13:11:55.757Z,17.11
2022-08-11T13:14:18.549Z,16.96
2022-08-11T13:17:06.688Z,16.46
2022-08-11T13:19:38.897Z,16.50
2022-08-11T13:22:07.673Z,16.34
2022-08-11T13:24:37.115Z,16.78
2022-08-11T13:27:06.139Z,16.74
2022-08-11T13:29:36.327Z,17.75
2022-08-11T13:32:04.859Z,17.24
2022-08-11T13:34:35.597Z,16.67
2022-08-11T13:37:05.811Z,17.35
2022-08-11T13:39:36.723Z,16.73
2022-08-11T13:42:06.338Z,17.15
2022-08-11T13:44:38.779Z,17.33
2022-08-11T13:47:09.369Z,17.41
2022-08-11T13:49:40.691Z,18.07
2022-08-11T13:52:17.258Z,19.00
2022-08-11T13:54:49.953Z,18.97
2022-08-11T13:58:08.233Z,19.55
2022-08-11T14:00:13.188Z,19.28
2022-08-11T14:02:58.382Z,19.91
2022-08-11T14:05:34.547Z,19.60
2022-08-11T14:08:08.229Z,19.43
2022-08-11T14:12:22.293Z,21.32
2022-08-11T14:14:13.957Z,20.79
2022-08-11T14:16:45.167Z,19.69
2022-08-11T14:19:15.818Z,19.79
2022-08-11T14:22:07.572Z,20.28
2022-08-11T14:24:41.719Z,19.37
2022-08-11T14:28:32.695Z,19.02
2022-08-11T14:30:03.197Z,18.75
2022-08-11T14:32:32.629Z,18.31
2022-08-11T14:35:02.818Z,18.16
2022-08-11T14:37:30.998Z,18.04
2022-08-11T14:40:21.901Z,18.36
2022-08-11T14:43:08.747Z,18.06
2022-08-11T14:45:58.666Z,18.47
2022-08-11T14:48:27.799Z,18.26
2022-08-11T14:50:57.157Z,18.29
2022-08-11T14:53:26.148Z,17.53
2022-08-11T14:56:13.914Z,17.04
2022-08-11T14:58:43.767Z,17.43
2022-08-11T15:01:31.611Z,17.67
2022-08-11T15:04:27.336Z,19.00
2022-08-11T15:06:49.606Z,18.67
2022-08-11T15:09:19.029Z,17.60
2022-08-11T15:12:06.190Z,17.83
2022-08-11T15:15:14.038Z,17.86
2022-08-11T15:17:44.451Z,17.93
2022-08-11T15:20:37.326Z,18.15
2022-08-11T15:23:24.927Z,18.55
2022-08-11T15:25:59.897Z,18.05
2022-08-11T15:28:50.218Z,17.77
2022-08-11T15:31:27.968Z,17.66
2022-08-11T15:34:20.539Z,17.72
2022-08-11T15:37:09.855Z,17.47
2022-08-11T15:40:32.849Z,17.34
2022-08-11T15:44:02.604Z,17.46
2022-08-11T15:46:49.114Z,17.74
2022-08-11T15:50:10.638Z,17.38
2022-08-11T15:52:24.220Z,18.21
2022-08-11T15:54:53.037Z,18.38
2022-08-11T15:57:40.654Z,18.53
2022-08-11T16:00:28.819Z,19.03
2022-08-11T16:03:19.349Z,19.09
2022-08-11T16:05:52.897Z,18.80
2022-08-11T16:08:32.541Z,18.44
2022-08-11T16:11:03.980Z,19.83
2022-08-11T16:13:42.420Z,19.17
2022-08-11T16:16:15.024Z,19.68
2022-08-11T16:18:52.789Z,19.46
2022-08-11T16:21:36.179Z,20.36
2022-08-11T16:27:02.077Z,19.65
2022-08-11T16:27:13.159Z,19.68
2022-08-11T16:29:48.274Z,19.33
2022-08-11T16:32:23.768Z,19.53
2022-08-11T16:35:16.687Z,20.10
2022-08-11T16:38:05.723Z,20.25
2022-08-11T16:40:34.915Z,19.95
2022-08-11T16:43:26.343Z,20.16
2022-08-11T16:46:14.929Z,20.56
2022-08-11T16:48:46.334Z,20.60
2022-08-11T16:51:15.734Z,20.61
2022-08-11T16:53:49.022Z,20.75
2022-08-11T16:56:48.581Z,20.09
2022-08-11T16:59:27.121Z,20.45
2022-08-11T17:02:09.041Z,20.85
2022-08-11T17:05:02.843Z,20.22
2022-08-11T17:07:50.191Z,20.21
2022-08-11T17:10:51.076Z,20.70
2022-08-11T17:13:37.379Z,20.81
2022-08-11T17:16:12.925Z,21.23
2022-08-11T17:18:58.500Z,21.39
2022-08-11T17:22:08.729Z,21.10
2022-08-11T17:24:46.720Z,21.10
2022-08-11T17:27:18.473Z,21.16
2022-08-11T17:29:59.160Z,21.21
2022-08-11T17:32:57.321Z,21.18
2022-08-11T17:35:34.593Z,22.00
2022-08-11T17:38:08.430Z,21.53
2022-08-11T17:40:40.641Z,21.37
2022-08-11T17:43:29.019Z,21.91
2022-08-11T17:46:17.414Z,21.77
2022-08-11T17:48:48.318Z,21.84
2022-08-11T17:51:39.210Z,22.16
2022-08-11T17:54:28.447Z,22.02
2022-08-11T17:57:20.236Z,22.25
2022-08-11T17:59:53.311Z,22.65
2022-08-11T18:02:48.978Z,22.47
2022-08-11T18:05:20.450Z,22.78
2022-08-11T18:08:12.395Z,23.00
2022-08-11T18:11:01.250Z,23.17
2022-08-11T18:13:51.930Z,23.45
2022-08-11T18:16:39.981Z,23.31
2022-08-11T18:19:28.089Z,23.19
2022-08-11T18:22:27.304Z,23.05
2022-08-11T18:25:20.490Z,22.80
2022-08-11T18:28:10.021Z,23.27
2022-08-11T18:31:03.810Z,23.46
2022-08-11T18:34:25.550Z,23.30
2022-08-11T18:37:29.153Z,23.83
2022-08-11T18:40:33.539Z,23.62
2022-08-11T18:43:28.741Z,23.66
2022-08-11T18:46:23.691Z,24.23
2022-08-11T18:49:15.885Z,23.90
2022-08-11T18:52:09.273Z,24.00
2022-08-11T18:54:58.971Z,24.11
2022-08-11T18:57:49.356Z,24.19
2022-08-11T19:00:44.081Z,24.25
2022-08-11T19:03:43.352Z,24.39
2022-08-11T19:06:41.531Z,24.05
2022-08-11T19:09:32.988Z,24.35
2022-08-11T19:12:20.634Z,24.23
2022-08-11T19:15:10.531Z,24.33
2022-08-11T19:18:03.611Z,23.60
2022-08-11T19:20:53.101Z,23.80
2022-08-11T19:23:57.728Z,23.62
2022-08-11T19:26:46.899Z,23.58
2022-08-11T19:30:12.035Z,23.67
2022-08-11T19:32:48.611Z,23.46
2022-08-11T19:35:36.512Z,23.18
2022-08-11T19:38:24.512Z,23.15
2022-08-11T19:41:12.740Z,22.72
2022-08-11T19:44:05.192Z,23.07
2022-08-11T19:46:55.122Z,22.41
2022-08-11T19:49:44.429Z,22.78
2022-08-11T19:52:32.433Z,22.64
2022-08-11T19:55:21.217Z,22.84
2022-08-11T19:58:09.531Z,22.73
2022-08-11T20:00:57.209Z,22.91
2022-08-11T20:03:44.001Z,23.59
2022-08-11T20:06:34.751Z,23.20
2022-08-11T20:09:23.381Z,23.49
2022-08-11T20:12:14.953Z,23.89
2022-08-11T20:15:05.991Z,23.99
2022-08-11T20:17:57.429Z,23.47
2022-08-11T20:20:46.335Z,23.22
2022-08-11T20:23:36.141Z,23.49
2022-08-11T20:26:31.087Z,23.53
2022-08-11T20:29:20.573Z,23.15
2022-08-11T20:32:09.383Z,23.17
2022-08-11T20:34:58.923Z,23.60
2022-08-11T20:37:51.300Z,23.57
2022-08-11T20:40:45.192Z,23.31
2022-08-11T20:44:06.286Z,24.01
2022-08-11T20:46:47.801Z,23.86
2022-08-11T20:49:44.885Z,25.03
2022-08-11T20:52:40.730Z,25.73
2022-08-11T20:55:51.684Z,26.46
2022-08-11T20:59:11.179Z,26.51
2022-08-11T21:01:45.830Z,26.24
2022-08-11T21:04:33.657Z,25.45
2022-08-11T21:07:29.173Z,25.00
2022-08-11T21:10:23.486Z,24.44
2022-08-11T21:13:24.252Z,24.26
2022-08-11T21:16:25.940Z,24.46
2022-08-11T21:20:01.692Z,24.42
2022-08-11T21:22:35.933Z,24.31
2022-08-11T21:25:27.992Z,23.88
2022-08-11T21:28:20.862Z,24.10
2022-08-11T21:31:09.376Z,24.25
2022-08-11T21:33:59.392Z,24.98
2022-08-11T21:36:47.922Z,27.69
2022-08-11T21:39:38.945Z,29.37
2022-08-11T21:42:26.741Z,30.36
2022-08-11T21:45:15.331Z,29.97
2022-08-11T21:48:04.722Z,30.39
2022-08-11T21:50:51.463Z,30.92
2022-08-11T21:53:39.252Z,35.09
2022-08-11T21:56:27.626Z,46.58
2022-08-11T21:59:16.750Z,48.30
2022-08-11T22:02:05.375Z,47.41
2022-08-11T22:04:56.309Z,48.03
2022-08-11T22:07:43.687Z,49.52
2022-08-11T22:10:42.515Z,50.06
2022-08-11T22:13:33.732Z,51.16
2022-08-11T22:16:20.592Z,51.64
2022-08-11T22:19:09.967Z,50.62
2022-08-11T22:22:03.398Z,52.15
2022-08-11T22:24:54.064Z,49.94
2022-08-11T22:27:41.472Z,51.00
2022-08-11T22:30:31.232Z,51.27
2022-08-11T22:33:25.553Z,52.81
2022-08-11T22:36:17.194Z,56.55
2022-08-11T22:39:06.082Z,56.89
2022-08-11T22:41:53.090Z,54.71
2022-08-11T22:44:40.258Z,53.44
2022-08-11T22:47:36.400Z,53.93
2022-08-11T22:50:29.465Z,53.89
2022-08-11T22:53:16.914Z,53.50
2022-08-11T22:56:04.853Z,53.28
2022-08-11T22:58:53.892Z,53.25
2022-08-11T23:01:54.715Z,53.96
2022-08-11T23:04:45.403Z,53.92
2022-08-11T23:07:50.345Z,56.61
2022-08-11T23:10:43.670Z,55.86
2022-08-11T23:13:31.041Z,56.64
2022-08-11T23:16:19.024Z,56.17
2022-08-11T23:19:08.048Z,57.51
2022-08-11T23:21:56.864Z,58.50
2022-08-11T23:24:44.656Z,57.63
2022-08-11T23:27:33.064Z,58.40
2022-08-11T23:30:21.262Z,57.67
2022-08-11T23:33:13.191Z,59.94
2022-08-11T23:36:05.316Z,57.16
2022-08-11T23:38:53.312Z,55.54
2022-08-11T23:41:40.320Z,54.87
2022-08-11T23:44:28.568Z,54.68
2022-08-11T23:47:19.424Z,57.38
2022-08-11T23:50:07.510Z,58.98
2022-08-11T23:52:55.669Z,58.29
2022-08-11T23:55:42.639Z,58.37
2022-08-11T23:58:30.980Z,57.79
